CheckWX is a tool to help pilots better visualize weather data.  It is not intended as a substitute for an official pre-flight weather briefing.

10:39:00 UTC

KSGS METAR
South St Paul Municipal-Richard E Fleming Field Airport
South St Paul, Minnesota, USA
Current

23 mins ago

KSGS 171016Z AUTO 16006KT 10SM CLR 21/18 A3000 RMK AO2 LTG DSNT W T02100177
Observed
Sep-17 @ 10:16 UTC
Wind
  • 160° at 6 KTS
Visibility
10 SM
Flight Rules
VFR
Cloud Levels
  • Clear skies
Temperature
21°C / 70°F
Dewpoint
18°C / 64°F
Humidity
83%
Altimeter
30" Hg
Pressure
1015.92 hPa
Previous

43 mins ago

KSGS 170956Z AUTO 15006KT 10SM CLR 21/18 A3000 RMK AO2 T02120179
Observed
Sep-17 @ 09:56 UTC
Wind
  • 150° at 6 KTS
Visibility
10 SM
Flight Rules
VFR
Cloud Levels
  • Clear skies
Temperature
21°C / 70°F
Dewpoint
18°C / 64°F
Humidity
83%
Altimeter
30" Hg
Pressure
1015.92 hPa
Previous

1 hour ago

KSGS 170935Z AUTO 15006KT 10SM CLR 21/18 A2999 RMK AO2 T02120178
Observed
Sep-17 @ 09:35 UTC
Wind
  • 150° at 6 KTS
Visibility
10 SM
Flight Rules
VFR
Cloud Levels
  • Clear skies
Temperature
21°C / 70°F
Dewpoint
18°C / 64°F
Humidity
83%
Altimeter
29.99" Hg
Pressure
1015.62 hPa